Time;durP1;ratioP1;P1;durP2;ratioP2;P2;SDS_P1;SDS_P2;PMS_P1;PMS_P2;Temp;Humidity;BMP_temperature;BMP_pressure;BME280_temperature;BME280_humidity;BME280_pressure;Samples;Min_cycle;Max_cycle;Signal;HPM_P1;HPM_P2
2022/12/27 00:04:09;;;;;;;5.53;0.85;;;;;;;;;;10504645;28;20538;-86
2022/12/27 00:09:10;;;;;;;3.65;0.70;;;;;;;;;;10510326;28;20709;-86
2022/12/27 00:14:11;;;;;;;4.05;0.47;;;;;;;;;;10506894;28;20218;-87
2022/12/27 00:19:12;;;;;;;2.05;0.50;;;;;;;;;;10480021;28;20221;-86
2022/12/27 00:24:13;;;;;;;1.95;0.75;;;;;;;;;;10504061;28;20205;-87
2022/12/27 00:29:14;;;;;;;1.00;0.43;;;;;;;;;;10488617;28;20216;-86
2022/12/27 00:34:16;;;;;;;4.30;0.47;;;;;;;;;;10490384;28;20659;-87
2022/12/27 00:39:17;;;;;;;0.35;0.30;;;;;;;;;;10496204;28;20765;-88
2022/12/27 00:44:19;;;;;;;1.52;0.40;;;;;;;;;;10506483;28;20202;-87
2022/12/27 00:49:20;;;;;;;0.80;0.65;;;;;;;;;;10493028;28;20232;-86
2022/12/27 00:54:22;;;;;;;1.25;0.75;;;;;;;;;;10491343;28;20228;-87
2022/12/27 00:59:22;;;;;;;4.38;0.70;;;;;;;;;;10502127;28;20225;-87
2022/12/27 01:04:24;;;;;;;0.80;0.60;;;;;;;;;;10502274;28;20717;-86
2022/12/27 01:09:25;;;;;;;1.38;0.50;;;;;;;;;;10503872;28;20213;-86
2022/12/27 01:14:26;;;;;;;1.40;0.77;;;;;;;;;;10488225;28;20898;-87
2022/12/27 01:19:27;;;;;;;2.72;0.70;;;;;;;;;;10502488;28;20217;-86
2022/12/27 01:24:28;;;;;;;5.38;0.70;;;;;;;;;;10504973;28;20202;-87
2022/12/27 01:29:29;;;;;;;0.77;0.68;;;;;;;;;;10503493;28;20258;-87
2022/12/27 01:34:30;;;;;;;2.67;1.00;;;;;;;;;;10502957;28;20228;-87
2022/12/27 01:39:31;;;;;;;1.10;0.55;;;;;;;;;;10501517;28;20700;-87
2022/12/27 01:44:52;;;;;;;10.77;1.45;;;;;;;;;;10487146;28;20209;-88
2022/12/27 01:49:53;;;;;;;2.42;0.73;;;;;;;;;;10477339;28;20713;-88
2022/12/27 01:54:56;;;;;;;4.97;0.65;;;;;;;;;;10511735;28;20321;-87
2022/12/27 01:59:57;;;;;;;2.72;0.95;;;;;;;;;;10512056;28;21184;-89
2022/12/27 02:04:58;;;;;;;4.25;0.98;;;;;;;;;;10512053;28;20252;-89
2022/12/27 02:10:01;;;;;;;1.63;0.95;;;;;;;;;;10512326;28;20596;-87
2022/12/27 02:15:03;;;;;;;1.90;0.93;;;;;;;;;;10511017;28;20696;-85
2022/12/27 02:20:12;;;;;;;2.15;0.82;;;;;;;;;;10510150;28;20270;-88
2022/12/27 02:25:17;;;;;;;2.75;1.02;;;;;;;;;;10511234;28;20657;-88
2022/12/27 02:30:19;;;;;;;1.77;0.70;;;;;;;;;;10513152;28;20184;-89
2022/12/27 02:35:38;;;;;;;4.47;1.20;;;;;;;;;;10500467;28;20218;-88
2022/12/27 02:57:14;;;;;;;3.13;0.80;;;;;;;;;;10506641;28;20752;-86
2022/12/27 03:07:50;;;;;;;2.83;0.80;;;;;;;;;;10511065;28;20202;-85
2022/12/27 03:18:18;;;;;;;2.15;0.47;;;;;;;;;;10508484;28;20205;-89
2022/12/27 03:34:30;;;;;;;2.47;0.50;;;;;;;;;;10487979;28;20596;-87
2022/12/27 03:39:31;;;;;;;3.03;0.50;;;;;;;;;;10510595;28;21157;-88
2022/12/27 03:44:32;;;;;;;0.88;0.50;;;;;;;;;;10508571;28;20209;-86
2022/12/27 03:49:36;;;;;;;0.40;0.40;;;;;;;;;;10510350;28;20213;-87
2022/12/27 03:54:39;;;;;;;3.47;0.63;;;;;;;;;;10508732;28;20281;-88
2022/12/27 03:59:40;;;;;;;1.80;0.30;;;;;;;;;;10510542;28;20228;-88
2022/12/27 04:04:41;;;;;;;0.30;0.30;;;;;;;;;;10505425;28;20216;-88
2022/12/27 04:36:22;;;;;;;9.00;0.60;;;;;;;;;;10509126;28;20217;-88
2022/12/27 04:57:30;;;;;;;2.53;0.40;;;;;;;;;;10509119;28;20220;-88
2022/12/27 05:02:31;;;;;;;1.90;0.68;;;;;;;;;;10507057;28;20218;-89
2022/12/27 05:18:30;;;;;;;3.40;0.40;;;;;;;;;;10509593;28;20218;-87
2022/12/27 05:28:53;;;;;;;0.40;0.40;;;;;;;;;;10525571;28;20224;-89
2022/12/27 05:33:55;;;;;;;3.08;0.60;;;;;;;;;;10524812;28;20233;-88
2022/12/27 05:38:57;;;;;;;1.10;0.60;;;;;;;;;;10527987;28;20267;-88
2022/12/27 05:43:58;;;;;;;1.80;0.63;;;;;;;;;;10514466;28;20210;-89
2022/12/27 05:48:59;;;;;;;0.65;0.65;;;;;;;;;;10506675;28;20241;-88
2022/12/27 05:54:00;;;;;;;0.90;0.55;;;;;;;;;;10496386;28;20205;-89
2022/12/27 05:59:01;;;;;;;3.88;0.45;;;;;;;;;;10509387;28;20220;-89
2022/12/27 06:04:02;;;;;;;3.58;0.40;;;;;;;;;;10505806;28;20258;-90
2022/12/27 06:09:03;;;;;;;1.33;0.60;;;;;;;;;;10506906;28;20216;-90
2022/12/27 06:14:04;;;;;;;0.63;0.50;;;;;;;;;;10504843;28;20300;-90
2022/12/27 06:19:05;;;;;;;0.82;0.70;;;;;;;;;;10503545;28;20236;-90
2022/12/27 06:24:06;;;;;;;2.30;0.90;;;;;;;;;;10505346;28;20267;-90
2022/12/27 06:29:09;;;;;;;1.85;0.63;;;;;;;;;;10507475;28;20221;-89
2022/12/27 06:34:10;;;;;;;1.00;0.52;;;;;;;;;;10488702;28;20245;-87
2022/12/27 06:39:11;;;;;;;4.40;0.75;;;;;;;;;;10508808;28;20631;-86
2022/12/27 06:44:12;;;;;;;1.25;0.50;;;;;;;;;;10508742;28;20235;-84
2022/12/27 06:49:14;;;;;;;2.60;0.52;;;;;;;;;;10509610;28;20242;-85
2022/12/27 06:54:15;;;;;;;1.80;0.90;;;;;;;;;;10500013;28;20218;-84
2022/12/27 06:59:16;;;;;;;1.13;0.60;;;;;;;;;;10509430;28;20217;-86
2022/12/27 07:04:17;;;;;;;5.68;0.70;;;;;;;;;;10507781;28;20241;-84
2022/12/27 07:09:18;;;;;;;2.22;0.68;;;;;;;;;;10501189;28;20216;-84
2022/12/27 07:14:20;;;;;;;2.72;0.80;;;;;;;;;;10504549;28;20214;-85
2022/12/27 07:19:21;;;;;;;2.38;0.73;;;;;;;;;;10483686;28;20236;-85
2022/12/27 07:24:22;;;;;;;1.00;0.40;;;;;;;;;;10501583;28;20216;-85
2022/12/27 07:29:23;;;;;;;2.25;0.50;;;;;;;;;;10498648;28;20339;-84
2022/12/27 07:34:24;;;;;;;0.90;0.43;;;;;;;;;;10511688;28;20728;-86
2022/12/27 07:39:26;;;;;;;6.88;1.02;;;;;;;;;;10509143;28;20581;-87
2022/12/27 07:44:27;;;;;;;0.73;0.73;;;;;;;;;;10515861;28;20217;-86
2022/12/27 07:49:28;;;;;;;2.17;0.80;;;;;;;;;;10510990;28;20304;-87
2022/12/27 07:54:29;;;;;;;1.38;0.80;;;;;;;;;;10515151;28;20379;-83
2022/12/27 07:59:30;;;;;;;1.30;1.08;;;;;;;;;;10513019;28;20213;-90
2022/12/27 08:04:32;;;;;;;2.22;1.02;;;;;;;;;;10513122;28;20636;-83
2022/12/27 08:09:35;;;;;;;0.88;0.82;;;;;;;;;;10508520;28;20269;-84
2022/12/27 08:14:36;;;;;;;1.13;0.70;;;;;;;;;;10506843;28;20206;-87
2022/12/27 08:19:37;;;;;;;3.40;0.65;;;;;;;;;;10497092;28;20616;-79
2022/12/27 08:24:40;;;;;;;3.28;1.05;;;;;;;;;;10499731;28;20209;-80
2022/12/27 08:29:41;;;;;;;1.63;1.15;;;;;;;;;;10484761;28;20209;-79
2022/12/27 08:34:42;;;;;;;5.20;0.90;;;;;;;;;;10485529;28;20232;-80
2022/12/27 08:39:43;;;;;;;0.88;0.88;;;;;;;;;;10494713;28;20313;-80
2022/12/27 08:44:44;;;;;;;4.13;1.13;;;;;;;;;;10478325;28;20201;-78
2022/12/27 08:49:45;;;;;;;2.22;0.90;;;;;;;;;;10494084;28;20583;-80
2022/12/27 08:54:46;;;;;;;3.05;1.02;;;;;;;;;;10497225;28;20524;-79
2022/12/27 08:59:48;;;;;;;2.58;1.00;;;;;;;;;;10485600;28;20239;-78
2022/12/27 09:04:49;;;;;;;0.95;0.95;;;;;;;;;;10484371;28;20255;-80
2022/12/27 09:09:50;;;;;;;1.08;1.05;;;;;;;;;;10496984;28;20693;-80
2022/12/27 09:14:51;;;;;;;4.68;1.00;;;;;;;;;;10492350;28;20226;-81
2022/12/27 09:19:52;;;;;;;2.50;1.33;;;;;;;;;;10495027;28;20214;-81
2022/12/27 09:24:53;;;;;;;3.90;1.55;;;;;;;;;;10477068;28;20213;-78
2022/12/27 09:29:54;;;;;;;3.13;1.13;;;;;;;;;;10501808;28;20219;-81
2022/12/27 09:34:55;;;;;;;5.18;1.45;;;;;;;;;;10494440;28;20599;-79
2022/12/27 09:39:56;;;;;;;2.60;1.33;;;;;;;;;;10475712;28;20715;-79
2022/12/27 09:45:10;;;;;;;1.45;1.45;;;;;;;;;;10504717;28;20658;-80
2022/12/27 09:50:13;;;;;;;6.65;1.88;;;;;;;;;;10504606;28;20213;-80
2022/12/27 09:55:17;;;;;;;2.58;1.70;;;;;;;;;;10479757;28;20189;-81
2022/12/27 10:00:20;;;;;;;1.80;1.60;;;;;;;;;;10494401;28;20217;-81
2022/12/27 10:05:22;;;;;;;3.58;1.92;;;;;;;;;;10459549;28;20206;-80
2022/12/27 10:10:37;;;;;;;3.33;1.45;;;;;;;;;;10502532;28;20267;-82
2022/12/27 10:15:50;;;;;;;2.72;1.90;;;;;;;;;;10509795;28;20232;-82
2022/12/27 10:21:01;;;;;;;1.52;1.42;;;;;;;;;;10505952;28;20221;-82
2022/12/27 10:26:06;;;;;;;7.28;2.13;;;;;;;;;;10509366;28;20221;-82
2022/12/27 10:31:17;;;;;;;2.70;2.08;;;;;;;;;;10514506;28;20214;-82
2022/12/27 10:36:28;;;;;;;5.47;1.98;;;;;;;;;;10510196;28;20259;-82
2022/12/27 10:41:48;;;;;;;2.72;1.77;;;;;;;;;;10511470;28;20229;-82
2022/12/27 10:46:51;;;;;;;5.85;2.10;;;;;;;;;;10506410;28;20298;-83
2022/12/27 10:51:53;;;;;;;1.70;1.60;;;;;;;;;;10522352;28;20225;-82
2022/12/27 10:56:55;;;;;;;1.88;1.70;;;;;;;;;;10505805;28;20206;-83
2022/12/27 11:02:02;;;;;;;1.58;1.48;;;;;;;;;;10500705;28;20225;-83
2022/12/27 11:07:03;;;;;;;1.35;1.23;;;;;;;;;;10497966;28;20660;-83
2022/12/27 11:12:16;;;;;;;2.08;1.70;;;;;;;;;;10513818;28;20284;-83
2022/12/27 11:17:17;;;;;;;1.63;1.52;;;;;;;;;;10493728;28;20340;-83
2022/12/27 11:22:18;;;;;;;2.10;2.00;;;;;;;;;;10473980;28;21522;-83
2022/12/27 11:27:27;;;;;;;2.13;1.98;;;;;;;;;;10483906;28;20213;-83
2022/12/27 11:32:28;;;;;;;3.80;1.63;;;;;;;;;;10486223;28;20221;-85
2022/12/27 11:37:29;;;;;;;3.03;1.52;;;;;;;;;;10494298;28;20198;-82
2022/12/27 11:42:44;;;;;;;2.20;2.08;;;;;;;;;;10488398;28;20550;-83
2022/12/27 11:47:49;;;;;;;2.30;1.50;;;;;;;;;;10480223;28;20214;-83
2022/12/27 11:53:08;;;;;;;3.70;1.95;;;;;;;;;;10500175;28;20220;-84
2022/12/27 11:58:17;;;;;;;5.68;2.40;;;;;;;;;;10499966;28;20298;-85
2022/12/27 12:03:30;;;;;;;3.85;2.45;;;;;;;;;;10502449;28;20225;-84
2022/12/27 12:08:34;;;;;;;2.20;2.10;;;;;;;;;;10503241;28;20206;-85
2022/12/27 12:13:47;;;;;;;4.55;2.15;;;;;;;;;;10470713;28;20201;-85
2022/12/27 12:19:11;;;;;;;4.85;1.90;;;;;;;;;;10503331;28;20715;-85
2022/12/27 12:24:28;;;;;;;3.22;1.77;;;;;;;;;;10510074;28;20225;-85
2022/12/27 12:29:32;;;;;;;4.55;1.85;;;;;;;;;;10507518;28;20209;-85
2022/12/27 12:34:56;;;;;;;2.28;1.23;;;;;;;;;;10487195;28;20230;-86
2022/12/27 12:40:22;;;;;;;2.17;1.23;;;;;;;;;;10501723;28;20221;-80
2022/12/27 12:45:41;;;;;;;1.52;1.08;;;;;;;;;;10498009;28;20301;-80
2022/12/27 12:50:51;;;;;;;2.72;0.77;;;;;;;;;;10486323;28;20209;-79
2022/12/27 12:56:18;;;;;;;0.73;0.73;;;;;;;;;;10506255;28;20205;-81
2022/12/27 13:01:19;;;;;;;5.53;1.00;;;;;;;;;;10504519;28;20241;-82
2022/12/27 13:06:41;;;;;;;1.80;0.77;;;;;;;;;;10497836;28;20213;-77
2022/12/27 13:11:42;;;;;;;1.08;0.70;;;;;;;;;;10493733;28;20634;-76
2022/12/27 13:17:01;;;;;;;0.95;0.95;;;;;;;;;;10500585;28;20293;-79
2022/12/27 13:22:17;;;;;;;2.28;0.82;;;;;;;;;;10486612;28;20224;-79
2022/12/27 13:27:30;;;;;;;2.22;1.48;;;;;;;;;;10487705;28;20216;-78
2022/12/27 13:32:43;;;;;;;1.02;0.95;;;;;;;;;;10488036;28;20262;-78
2022/12/27 13:38:03;;;;;;;1.23;1.23;;;;;;;;;;10502471;28;20221;-77
2022/12/27 13:43:23;;;;;;;1.10;1.10;;;;;;;;;;10497136;28;20255;-77
2022/12/27 13:48:27;;;;;;;1.20;1.13;;;;;;;;;;10523819;28;20210;-76
2022/12/27 13:53:34;;;;;;;1.10;1.10;;;;;;;;;;10503219;28;20209;-78
2022/12/27 13:58:48;;;;;;;4.88;1.88;;;;;;;;;;10502901;28;20206;-78
2022/12/27 14:03:49;;;;;;;2.45;1.50;;;;;;;;;;10510853;28;20217;-76
2022/12/27 14:08:53;;;;;;;4.25;1.50;;;;;;;;;;10509710;28;20213;-77
2022/12/27 14:13:55;;;;;;;4.75;2.47;;;;;;;;;;10503815;28;20225;-77
2022/12/27 14:18:56;;;;;;;3.60;3.40;;;;;;;;;;10521188;28;20304;-77
2022/12/27 14:24:11;;;;;;;6.03;4.82;;;;;;;;;;10517099;28;20704;-78
2022/12/27 14:29:39;;;;;;;5.22;4.35;;;;;;;;;;10510318;28;20205;-77
2022/12/27 14:34:59;;;;;;;4.28;3.60;;;;;;;;;;10505650;28;20677;-77
2022/12/27 14:40:06;;;;;;;4.60;3.50;;;;;;;;;;10526321;28;20229;-77
2022/12/27 14:45:09;;;;;;;3.42;3.13;;;;;;;;;;10510235;28;20640;-78
2022/12/27 14:50:20;;;;;;;8.52;4.55;;;;;;;;;;10521228;28;20768;-78
2022/12/27 14:55:30;;;;;;;5.47;4.97;;;;;;;;;;10510698;28;20206;-79
2022/12/27 15:00:44;;;;;;;4.50;4.10;;;;;;;;;;10518441;28;20658;-78
2022/12/27 15:05:54;;;;;;;3.90;3.60;;;;;;;;;;10511112;28;20205;-78
2022/12/27 15:11:00;;;;;;;4.78;3.95;;;;;;;;;;10516154;28;20232;-78
2022/12/27 15:16:08;;;;;;;5.57;4.38;;;;;;;;;;10508058;28;20689;-78
2022/12/27 15:21:17;;;;;;;3.50;3.33;;;;;;;;;;10512476;28;20225;-78
2022/12/27 15:26:24;;;;;;;3.45;3.15;;;;;;;;;;10494712;28;20213;-78
2022/12/27 15:31:31;;;;;;;4.85;3.90;;;;;;;;;;10521441;28;20220;-77
2022/12/27 15:36:38;;;;;;;6.97;3.85;;;;;;;;;;10504253;28;20218;-77
2022/12/27 15:41:56;;;;;;;4.28;3.38;;;;;;;;;;10493845;28;20218;-77
2022/12/27 15:46:57;;;;;;;13.35;7.25;;;;;;;;;;10516775;28;20266;-78
2022/12/27 15:51:58;;;;;;;15.15;6.85;;;;;;;;;;10516468;28;20291;-79
2022/12/27 15:57:11;;;;;;;9.75;6.30;;;;;;;;;;10491105;28;20214;-78
2022/12/27 16:02:21;;;;;;;13.35;8.18;;;;;;;;;;10511277;28;20263;-79
2022/12/27 16:07:40;;;;;;;14.70;8.63;;;;;;;;;;10485957;28;20711;-80
2022/12/27 16:12:43;;;;;;;16.67;9.02;;;;;;;;;;10505323;28;20221;-79
2022/12/27 16:17:54;;;;;;;15.93;9.35;;;;;;;;;;10513694;28;21156;-78
2022/12/27 16:23:14;;;;;;;14.68;7.50;;;;;;;;;;10512027;28;20599;-79
2022/12/27 16:28:15;;;;;;;21.23;9.55;;;;;;;;;;10498180;28;20213;-79
2022/12/27 16:33:29;;;;;;;11.02;7.18;;;;;;;;;;10508385;28;20244;-78
2022/12/27 16:38:32;;;;;;;7.20;6.05;;;;;;;;;;10490957;28;20262;-78
2022/12/27 16:43:41;;;;;;;7.88;5.47;;;;;;;;;;10508124;28;20240;-78
2022/12/27 16:48:42;;;;;;;7.55;6.10;;;;;;;;;;10482163;28;20229;-78
2022/12/27 16:54:02;;;;;;;13.35;7.53;;;;;;;;;;10494622;28;20248;-78
2022/12/27 16:59:23;;;;;;;9.07;5.90;;;;;;;;;;10492465;28;20262;-78
2022/12/27 17:04:44;;;;;;;5.85;4.78;;;;;;;;;;10510759;28;20216;-77
2022/12/27 17:09:45;;;;;;;6.43;4.80;;;;;;;;;;10499158;28;20240;-77
2022/12/27 17:14:47;;;;;;;7.15;5.20;;;;;;;;;;10512038;28;20300;-77
2022/12/27 17:19:55;;;;;;;4.68;4.28;;;;;;;;;;10504500;28;20221;-77
2022/12/27 17:24:57;;;;;;;7.80;4.45;;;;;;;;;;10512484;28;20225;-77
2022/12/27 17:30:05;;;;;;;5.43;4.07;;;;;;;;;;10517298;28;20210;-78
2022/12/27 17:35:12;;;;;;;6.65;5.53;;;;;;;;;;10496274;28;20673;-77
2022/12/27 17:40:30;;;;;;;44.88;14.02;;;;;;;;;;10511558;28;20251;-77
2022/12/27 17:45:46;;;;;;;23.40;10.13;;;;;;;;;;10507653;28;20213;-78
2022/12/27 17:50:47;;;;;;;19.92;10.38;;;;;;;;;;10482385;28;20220;-77
2022/12/27 18:01:18;;;;;;;3.97;3.58;;;;;;;;;;10503873;28;20233;-78
2022/12/27 18:06:19;;;;;;;4.35;3.95;;;;;;;;;;10508022;28;20216;-78
2022/12/27 18:11:21;;;;;;;4.82;3.33;;;;;;;;;;10512821;28;20201;-76
2022/12/27 18:16:23;;;;;;;5.88;4.72;;;;;;;;;;10491717;28;20255;-77
2022/12/27 18:21:25;;;;;;;5.82;3.72;;;;;;;;;;10503605;28;20220;-78
2022/12/27 18:26:32;;;;;;;6.43;4.07;;;;;;;;;;10504170;28;20297;-78
2022/12/27 18:31:35;;;;;;;6.35;3.67;;;;;;;;;;10508559;28;20209;-78
2022/12/27 18:36:39;;;;;;;3.50;3.20;;;;;;;;;;10509395;28;20221;-78
2022/12/27 18:41:46;;;;;;;6.13;4.72;;;;;;;;;;10519322;28;20608;-79
2022/12/27 18:46:49;;;;;;;5.53;2.63;;;;;;;;;;10519237;28;20465;-79
2022/12/27 18:51:50;;;;;;;2.88;2.65;;;;;;;;;;10505827;28;20210;-79
2022/12/27 18:56:52;;;;;;;2.17;2.03;;;;;;;;;;10510182;28;20213;-79
2022/12/27 19:01:54;;;;;;;1.80;1.70;;;;;;;;;;10513332;28;20247;-77
2022/12/27 19:06:58;;;;;;;3.40;1.88;;;;;;;;;;10502487;28;20241;-77
2022/12/27 19:12:01;;;;;;;4.43;2.92;;;;;;;;;;10499196;28;20573;-76
2022/12/27 19:17:02;;;;;;;6.88;4.68;;;;;;;;;;10506721;28;20961;-77
2022/12/27 19:22:23;;;;;;;2.97;2.47;;;;;;;;;;10519887;28;20763;-78
2022/12/27 19:27:24;;;;;;;4.47;1.65;;;;;;;;;;10492696;28;20213;-78
2022/12/27 19:32:32;;;;;;;2.33;1.50;;;;;;;;;;10499085;28;20213;-77
2022/12/27 19:37:33;;;;;;;1.85;1.67;;;;;;;;;;10514601;28;23623;-78
2022/12/27 19:42:34;;;;;;;1.00;1.00;;;;;;;;;;10512093;28;20312;-78
2022/12/27 19:47:38;;;;;;;1.10;1.10;;;;;;;;;;10516055;28;20240;-77
2022/12/27 19:52:39;;;;;;;0.70;0.70;;;;;;;;;;10492925;28;20214;-79
2022/12/27 19:57:40;;;;;;;1.60;1.50;;;;;;;;;;10499878;28;20259;-79
2022/12/27 20:02:41;;;;;;;2.28;1.60;;;;;;;;;;10492273;28;20274;-78
2022/12/27 20:07:43;;;;;;;1.88;1.40;;;;;;;;;;10518470;28;20612;-80
2022/12/27 20:12:44;;;;;;;4.07;0.85;;;;;;;;;;10508690;28;20705;-78
2022/12/27 20:17:45;;;;;;;1.40;0.98;;;;;;;;;;10510238;28;20210;-77
2022/12/27 20:22:46;;;;;;;4.22;1.20;;;;;;;;;;10508768;28;20216;-78
2022/12/27 20:27:47;;;;;;;1.98;1.13;;;;;;;;;;10487326;28;20743;-77
2022/12/27 20:32:48;;;;;;;1.08;0.98;;;;;;;;;;10504410;28;20240;-77
2022/12/27 20:37:50;;;;;;;6.53;4.22;;;;;;;;;;10496754;28;20716;-78
2022/12/27 20:42:51;;;;;;;16.75;7.25;;;;;;;;;;10487724;28;20226;-78
2022/12/27 20:47:52;;;;;;;7.38;3.83;;;;;;;;;;10474048;28;20223;-77
2022/12/27 20:52:53;;;;;;;10.00;6.45;;;;;;;;;;10504217;28;20217;-77
2022/12/27 20:57:54;;;;;;;14.95;6.20;;;;;;;;;;10514104;28;20229;-77
2022/12/27 21:02:55;;;;;;;1.90;1.80;;;;;;;;;;10511543;28;20339;-78
2022/12/27 21:07:56;;;;;;;2.53;2.30;;;;;;;;;;10508637;28;20221;-78
2022/12/27 21:12:57;;;;;;;3.10;2.90;;;;;;;;;;10504538;28;21663;-78
2022/12/27 21:17:58;;;;;;;5.30;3.17;;;;;;;;;;10490760;28;20225;-78
2022/12/27 21:22:59;;;;;;;7.70;2.65;;;;;;;;;;10504297;28;20245;-77
2022/12/27 21:28:00;;;;;;;8.30;5.90;;;;;;;;;;10502246;28;20251;-78
2022/12/27 21:33:01;;;;;;;3.35;3.05;;;;;;;;;;10494638;28;20746;-77
2022/12/27 21:38:02;;;;;;;7.22;4.30;;;;;;;;;;10509863;28;20304;-78
2022/12/27 21:43:03;;;;;;;8.60;5.63;;;;;;;;;;10505642;28;20249;-78
2022/12/27 21:48:04;;;;;;;7.18;3.83;;;;;;;;;;10504183;28;20297;-78
2022/12/27 21:53:05;;;;;;;3.13;2.92;;;;;;;;;;10506788;28;20213;-77
2022/12/27 21:58:06;;;;;;;6.93;4.53;;;;;;;;;;10511925;28;20225;-79
2022/12/27 22:03:07;;;;;;;6.20;2.60;;;;;;;;;;10490410;28;20223;-78
2022/12/27 22:08:09;;;;;;;1.73;1.65;;;;;;;;;;10509975;28;20311;-78
2022/12/27 22:13:10;;;;;;;2.70;2.20;;;;;;;;;;10510172;28;20566;-78
2022/12/27 22:18:11;;;;;;;3.85;2.60;;;;;;;;;;10506300;28;20756;-79
2022/12/27 22:23:12;;;;;;;6.03;3.80;;;;;;;;;;10508438;28;20355;-78
2022/12/27 22:28:13;;;;;;;3.42;2.00;;;;;;;;;;10512326;28;20232;-78
2022/12/27 22:33:15;;;;;;;3.75;2.13;;;;;;;;;;10519598;28;20308;-78
2022/12/27 22:38:16;;;;;;;3.20;2.20;;;;;;;;;;10519972;28;20214;-78
2022/12/27 22:43:17;;;;;;;1.90;1.80;;;;;;;;;;10510502;28;21852;-78
2022/12/27 22:48:18;;;;;;;2.85;1.88;;;;;;;;;;10519793;28;20251;-78
2022/12/27 22:53:19;;;;;;;3.30;2.05;;;;;;;;;;10514015;28;20622;-78
2022/12/27 22:58:20;;;;;;;1.25;1.15;;;;;;;;;;10511151;28;20210;-78
2022/12/27 23:03:21;;;;;;;4.78;2.03;;;;;;;;;;10482547;28;20217;-78
2022/12/27 23:08:22;;;;;;;3.55;1.50;;;;;;;;;;10503694;28;20235;-79
2022/12/27 23:13:25;;;;;;;1.45;1.40;;;;;;;;;;10496725;28;20241;-78
2022/12/27 23:18:26;;;;;;;1.95;1.52;;;;;;;;;;10497966;28;20215;-78
2022/12/27 23:23:27;;;;;;;1.05;1.05;;;;;;;;;;10496615;28;20217;-78
2022/12/27 23:28:28;;;;;;;3.63;2.08;;;;;;;;;;10496422;28;20253;-78
2022/12/27 23:33:30;;;;;;;1.80;1.70;;;;;;;;;;10485400;28;20693;-78
2022/12/27 23:38:31;;;;;;;6.07;1.48;;;;;;;;;;10510809;28;20205;-79
2022/12/27 23:43:33;;;;;;;3.00;1.63;;;;;;;;;;10501052;28;20249;-78
2022/12/27 23:48:34;;;;;;;4.30;2.05;;;;;;;;;;10494509;28;20221;-78
2022/12/27 23:53:36;;;;;;;2.95;1.10;;;;;;;;;;10503951;28;20216;-80
2022/12/27 23:58:37;;;;;;;1.00;0.98;;;;;;;;;;10482605;28;20209;-79
